TFM - Tactical Decision Aid
ID: Runway Winds: CIG/VIS Threshold:

KCLT - Charlotte/Douglas In, NC, US

Updated at: 0156 UTC 12 May 2021
Latest TAF at: 2342 UTC 11 May 2021

TAF Board

Time0152Z 12/02Z 12/03Z 12/04Z 12/05Z 12/06Z 12/07Z 12/08Z 12/09Z 12/10Z 12/11Z 12/12Z 12/13Z 12/14Z>>
Type OBS PRVL PRVL PRVL PRVL PRVL PRVL PRVL
  [TEMP]  
PRVL
  [TEMP]  
PRVL
  [TEMP]  
PRVL PRVL PRVL PRVL
VIS 10 >6 >6 >6 >6 >6 >6 >6
  [5]  
>6
  [5]  
>6
  [5]  
6 6 6 6
CIG 110 250 250 250 250 250 250 50
  [25]  
50
  [25]  
50
  [25]  
35 35 35 35
Cover OVC BKN BKN BKN BKN BKN BKN OVC
  [OVC]  
OVC
  [OVC]  
OVC
  [OVC]  
OVC OVC OVC OVC
FltCat VFR VFR VFR VFR VFR VFR VFR VFR
  [MVFR]  
VFR
  [MVFR]  
VFR
  [MVFR]  
VFR VFR VFR VFR
WX -- -- -- -- -- -- -- VCSH
  [-RA BR]  
VCSH
  [-RA BR]  
VCSH
  [-RA BR]  
-RA -RA -RA -RA
WDir 80 50 50 50 50 50 50 40
[40]
40
[40]
40
[40]
40 40 40 40
WSpd 4 5 5 5 5 5 5 8
  [8]  
8
  [8]  
8
  [8]  
11 11 11 11
WGst -- -- -- -- -- -- -- --
  [--]  
--
  [--]  
--
  [--]  
19 19 19 19

TDA Impact Legend

  None Marginal Slight Moderate High
Visibility (sm) >5 3≤X≤5 1≤X<3 0.5≤X<1 <0.5
Ceiling (100 ft) >30 10≤X≤30 4≤X<10 2≤X<4 <2
Wind Speed (kt) <15 15≤X<25 25≤X<30 ≥30
Wind Gust (kt) <15 15≤X<25 25≤X<35 ≥35
Weather No Wx Reported VCTS -TS,-FZRA TS,FZRA +TS,+FZRA
TAF
KCLT 112342Z 1200/1306 05005KT P6SM SCT050 SCT080 BKN250
  FM120800 04008KT P6SM VCSH OVC050
  TEMPO 1208/1211 5SM -RA BR OVC025
  FM121100 04011G19KT 6SM -RA OVC035
  FM121500 04010G17KT 5SM -RA BR OVC024
  TEMPO 1215/1219 3SM RA BR OVC015
  FM122200 03006KT P6SM BKN060


METAR
KCLT 120152Z 08004KT 10SM SCT070 BKN110 OVC250 20/12 A3012 RMK AO2 SLP193 T02000122
KCLT 120052Z VRB05KT 10SM FEW075 SCT095 BKN250 20/12 A3008 RMK AO2 SLP179 T02000122
KCLT 112352Z 02007KT 10SM FEW060 SCT075 SCT100 BKN250 20/12 A3008 RMK AO2 SLP182 T02000117 10228 20200 58004
KCLT 112252Z VRB06KT 10SM FEW045 SCT080 BKN250 22/11 A3008 RMK AO2 SLP180 T02170111

Radar Display
Forecast Discussion